createdAt,value
2023-05-19T00:00:20.888Z,102088.05
2023-05-19T00:01:26.529Z,102086.09
2023-05-19T00:02:32.167Z,102079.03
2023-05-19T00:03:38.144Z,102085.73
2023-05-19T00:04:43.912Z,102082.19
2023-05-19T00:05:49.478Z,102088.47
2023-05-19T00:06:54.986Z,102085.78
2023-05-19T00:08:00.485Z,102083.16
2023-05-19T00:09:06.000Z,102087.13
2023-05-19T00:10:11.521Z,102086.2
2023-05-19T00:11:17.118Z,102087.68
2023-05-19T00:12:22.600Z,102085.42
2023-05-19T00:13:28.073Z,102080.11
2023-05-19T00:14:33.586Z,102087.73
2023-05-19T00:15:39.114Z,102085.42
2023-05-19T00:16:44.672Z,102085.47
2023-05-19T00:17:50.222Z,102089.02
2023-05-19T00:18:55.886Z,102084.13
2023-05-19T00:20:01.598Z,102088.66
2023-05-19T00:21:07.076Z,102079.11
2023-05-19T00:22:12.533Z,102088.97
2023-05-19T00:23:17.982Z,102078.72
2023-05-19T00:24:23.480Z,102085
2023-05-19T00:25:28.940Z,102084.5
2023-05-19T00:26:34.438Z,102082.33
2023-05-19T00:27:39.897Z,102080.01
2023-05-19T00:28:45.336Z,102086.2
2023-05-19T00:29:50.803Z,102084.03
2023-05-19T00:30:56.288Z,102079.09
2023-05-19T00:33:07.534Z,102077.33
2023-05-19T00:34:13.337Z,102075.8
2023-05-19T00:35:18.784Z,102077.14
2023-05-19T00:36:24.371Z,102077.28
2023-05-19T00:37:29.839Z,102075.48
2023-05-19T00:38:35.362Z,102072.34
2023-05-19T00:39:40.890Z,102068.42
2023-05-19T00:40:46.348Z,102076.55
2023-05-19T00:41:51.797Z,102072.44
2023-05-19T00:42:57.319Z,102072.08
2023-05-19T00:44:02.761Z,102075.62
2023-05-19T00:45:08.268Z,102071.66
2023-05-19T00:46:13.903Z,102076.55
2023-05-19T00:47:19.431Z,102077.44
2023-05-19T00:48:24.921Z,102070.22
2023-05-19T00:49:30.406Z,102078.25
2023-05-19T00:50:36.392Z,102073.78
2023-05-19T00:51:41.937Z,102076.05
2023-05-19T00:52:47.382Z,102073.37
2023-05-19T00:53:52.862Z,102072.53
2023-05-19T00:54:58.354Z,102076.09
2023-05-19T00:56:03.935Z,102073.87
2023-05-19T00:57:09.532Z,102076.97
2023-05-19T00:58:15.034Z,102078.3
2023-05-19T00:59:20.461Z,102077.44
2023-05-19T01:00:25.991Z,102078.3
2023-05-19T01:01:31.674Z,102072.44
2023-05-19T01:02:37.339Z,102075.98
2023-05-19T01:03:43.232Z,102074.7
2023-05-19T01:04:48.956Z,102081.34
2023-05-19T01:05:54.416Z,102076.36
2023-05-19T01:06:59.859Z,102078.48
2023-05-19T01:08:05.365Z,102080.8
2023-05-19T01:09:10.922Z,102088.47
2023-05-19T01:10:16.384Z,102073.78
2023-05-19T01:11:21.850Z,102078.06
2023-05-19T01:12:27.312Z,102072.39
2023-05-19T01:13:32.771Z,102082.27
2023-05-19T01:14:38.248Z,102077.33
2023-05-19T01:15:43.721Z,102083.16
2023-05-19T01:16:49.400Z,102081.4
2023-05-19T01:17:55.070Z,102083.05
2023-05-19T01:19:00.695Z,102077.8
2023-05-19T01:20:06.364Z,102079.59
2023-05-19T01:21:14.111Z,102080.93
2023-05-19T01:22:19.563Z,102077.8
2023-05-19T01:23:25.026Z,102075.98
2023-05-19T01:24:30.556Z,102076.05
2023-05-19T01:25:37.066Z,102078.62
2023-05-19T01:26:42.580Z,102073.67
2023-05-19T01:27:48.092Z,102076.41
2023-05-19T01:28:53.576Z,102082.19
2023-05-19T01:29:59.081Z,102082.5
2023-05-19T01:31:04.639Z,102078.11
2023-05-19T01:32:10.245Z,102082.13
2023-05-19T01:33:15.870Z,102084.34
2023-05-19T01:34:21.315Z,102086.46
2023-05-19T01:35:26.836Z,102082.5
2023-05-19T01:36:32.313Z,102080.66
2023-05-19T01:37:37.933Z,102079.45
2023-05-19T01:38:43.420Z,102085.67
2023-05-19T01:39:48.908Z,102083.47
2023-05-19T01:40:54.387Z,102085.31
2023-05-19T01:41:59.831Z,102085.31
2023-05-19T01:43:05.304Z,102091.14
2023-05-19T01:44:10.752Z,102087.68
2023-05-19T01:45:16.215Z,102090
2023-05-19T01:46:21.726Z,102090.41
2023-05-19T01:47:27.373Z,102089.94
2023-05-19T01:48:32.931Z,102087.68
2023-05-19T01:49:38.411Z,102095.3
2023-05-19T01:50:43.882Z,102090.36
2023-05-19T01:51:49.367Z,102095.77
2023-05-19T01:52:54.864Z,102090.78
2023-05-19T01:54:00.368Z,102094.37
2023-05-19T01:55:05.884Z,102098.45
2023-05-19T01:56:11.350Z,102093.52
2023-05-19T01:57:16.820Z,102100.66
2023-05-19T01:58:23.350Z,102094.43
2023-05-19T01:59:28.887Z,102094.94
2023-05-19T02:00:35.170Z,102093.14
2023-05-19T02:01:40.934Z,102099
2023-05-19T02:02:47.489Z,102098.08
2023-05-19T02:03:53.018Z,102091.44
2023-05-19T02:04:58.578Z,102096.88
2023-05-19T02:06:04.037Z,102098.14
2023-05-19T02:07:09.524Z,102096.88
2023-05-19T02:08:14.992Z,102094.57
2023-05-19T02:09:20.434Z,102089.31
2023-05-19T02:10:25.905Z,102089.31
2023-05-19T02:11:31.402Z,102091.94
2023-05-19T02:12:36.871Z,102088.84
2023-05-19T02:13:42.357Z,102094.67
2023-05-19T02:14:47.815Z,102088.34
2023-05-19T02:15:53.352Z,102085.66
2023-05-19T02:16:58.858Z,102087.98
2023-05-19T02:18:04.511Z,102091.44
2023-05-19T02:19:10.297Z,102090.55
2023-05-19T02:20:15.779Z,102096.02
2023-05-19T02:21:21.236Z,102095.41
2023-05-19T02:22:26.714Z,102095.04
2023-05-19T02:23:32.196Z,102091.44
2023-05-19T02:24:37.665Z,102094.63
2023-05-19T02:25:43.120Z,102089.27
2023-05-19T02:26:49.582Z,102087.56
2023-05-19T02:27:55.054Z,102095.59
2023-05-19T02:29:00.543Z,102091.08
2023-05-19T02:30:06.020Z,102087.56
2023-05-19T02:31:11.509Z,102089.38
2023-05-19T02:32:17.086Z,102090.23
2023-05-19T02:33:22.948Z,102093.23
2023-05-19T02:34:28.455Z,102097.61
2023-05-19T02:35:33.978Z,102090.3
2023-05-19T02:36:39.505Z,102090.22
2023-05-19T02:37:44.987Z,102088.77
2023-05-19T02:38:50.514Z,102091.45
2023-05-19T02:39:55.975Z,102093.27
2023-05-19T02:41:01.503Z,102088.41
2023-05-19T02:42:06.954Z,102092.43
2023-05-19T02:43:12.456Z,102084.03
2023-05-19T02:44:19.001Z,102086.34
2023-05-19T02:45:24.483Z,102089.39
2023-05-19T02:46:30.143Z,102090.3
2023-05-19T02:47:38.379Z,102091.28
2023-05-19T02:48:43.963Z,102094.98
2023-05-19T02:49:49.448Z,102081.64
2023-05-19T02:50:54.905Z,102088.84
2023-05-19T02:52:00.470Z,102094.57
2023-05-19T02:53:05.933Z,102089.69
2023-05-19T02:54:11.409Z,102092.87
2023-05-19T02:55:16.870Z,102085.3
2023-05-19T02:56:22.382Z,102088.03
2023-05-19T02:57:30.138Z,102093.39
2023-05-19T02:58:35.716Z,102090.7
2023-05-19T02:59:41.171Z,102089.45
2023-05-19T03:00:46.731Z,102090.3
2023-05-19T03:01:52.284Z,102088.48
2023-05-19T03:02:57.990Z,102087.56
2023-05-19T03:04:03.904Z,102087.14
2023-05-19T03:05:09.546Z,102086.64
2023-05-19T03:06:15.051Z,102083.04
2023-05-19T03:07:20.480Z,102087.92
2023-05-19T03:08:25.957Z,102081.64
2023-05-19T03:09:31.455Z,102080.81
2023-05-19T03:10:36.896Z,102084.83
2023-05-19T03:11:42.354Z,102081.23
2023-05-19T03:12:47.833Z,102086.08
2023-05-19T03:13:53.288Z,102080.73
2023-05-19T03:14:58.771Z,102082.52
2023-05-19T03:16:04.325Z,102080.67
2023-05-19T03:17:10.089Z,102078.41
2023-05-19T03:18:18.067Z,102069.54
2023-05-19T03:19:24.060Z,102075.27
2023-05-19T03:20:29.647Z,102075.68
2023-05-19T03:21:35.392Z,102070.37
2023-05-19T03:22:40.893Z,102081.04
2023-05-19T03:23:46.365Z,102074.34
2023-05-19T03:24:51.892Z,102071.72
2023-05-19T03:25:57.367Z,102069.91
2023-05-19T03:27:02.819Z,102069.48
2023-05-19T03:28:08.262Z,102062.23
2023-05-19T03:29:13.741Z,102065.83
2023-05-19T03:30:19.177Z,102066.67
2023-05-19T03:31:24.654Z,102062.59
2023-05-19T03:32:30.231Z,102065.27
2023-05-19T03:33:35.991Z,102072.34
2023-05-19T03:34:41.451Z,102067.81
2023-05-19T03:35:46.960Z,102067.34
2023-05-19T03:36:52.420Z,102069.94
2023-05-19T03:37:57.876Z,102063.69
2023-05-19T03:39:03.330Z,102065.39
2023-05-19T03:40:08.847Z,102061.8
2023-05-19T03:41:14.314Z,102064.42
2023-05-19T03:42:19.824Z,102070.19
2023-05-19T03:43:25.369Z,102074.08
2023-05-19T03:44:30.810Z,102072.73
2023-05-19T03:45:36.318Z,102079.94
2023-05-19T03:46:41.898Z,102079.38
2023-05-19T03:47:47.467Z,102076.28
2023-05-19T03:48:53.022Z,102072.2
2023-05-19T03:49:58.537Z,102077.2
2023-05-19T03:51:04.007Z,102071.7
2023-05-19T03:52:09.451Z,102074.8
2023-05-19T03:53:17.138Z,102077.48
2023-05-19T03:54:22.631Z,102076.59
2023-05-19T03:55:28.128Z,102083.57
2023-05-19T03:56:34.686Z,102080.05
2023-05-19T03:57:40.154Z,102090.27
2023-05-19T03:58:45.619Z,102086.53
2023-05-19T03:59:51.143Z,102082.16
2023-05-19T04:00:56.617Z,102091.11
2023-05-19T04:02:02.156Z,102087.93
2023-05-19T04:03:07.893Z,102095.97
2023-05-19T04:04:13.834Z,102086.39
2023-05-19T04:05:19.793Z,102079.68
2023-05-19T04:06:25.308Z,102081.33
2023-05-19T04:07:30.808Z,102079.73
2023-05-19T04:08:36.293Z,102084.2
2023-05-19T04:09:41.760Z,102083.25
2023-05-19T04:10:47.272Z,102085.1
2023-05-19T04:11:52.745Z,102082.72
2023-05-19T04:12:58.364Z,102084.34
2023-05-19T04:14:03.865Z,102080.01
2023-05-19T04:15:09.329Z,102084.13
2023-05-19T04:16:14.887Z,102083.25
2023-05-19T04:17:20.446Z,102087.66
2023-05-19T04:18:29.000Z,102089.09
2023-05-19T04:19:34.632Z,102080.74
2023-05-19T04:20:40.118Z,102083.73
2023-05-19T04:21:45.663Z,102082.03
2023-05-19T04:22:51.142Z,102083.28
2023-05-19T04:23:56.633Z,102083.78
2023-05-19T04:25:02.101Z,102089.25
2023-05-19T04:26:07.604Z,102078.17
2023-05-19T04:27:13.116Z,102086.34
2023-05-19T04:28:18.564Z,102083.3
2023-05-19T04:29:24.007Z,102083.08
2023-05-19T04:30:29.469Z,102078.08
2023-05-19T04:31:35.168Z,102082.16
2023-05-19T04:32:41.122Z,102085.75
2023-05-19T04:33:46.637Z,102091.72
2023-05-19T04:34:52.126Z,102086.41
2023-05-19T04:35:57.578Z,102088.9
2023-05-19T04:37:03.066Z,102087.8
2023-05-19T04:38:08.516Z,102083
2023-05-19T04:39:14.009Z,102083.92
2023-05-19T04:40:19.447Z,102085.62
2023-05-19T04:41:24.900Z,102087.44
2023-05-19T04:42:30.368Z,102087.63
2023-05-19T04:43:35.815Z,102090.73
2023-05-19T04:44:41.311Z,102092.33
2023-05-19T04:45:46.832Z,102092.74
2023-05-19T04:46:52.331Z,102092.8
2023-05-19T04:47:58.190Z,102090.12
2023-05-19T04:49:03.832Z,102089.8
2023-05-19T04:50:09.295Z,102087.58
2023-05-19T04:51:14.789Z,102088.1
2023-05-19T04:52:20.250Z,102089.16
2023-05-19T04:53:25.787Z,102091.02
2023-05-19T04:54:31.244Z,102094.93
2023-05-19T04:55:36.707Z,102096.64
2023-05-19T04:56:42.162Z,102094.74
2023-05-19T04:57:48.659Z,102102.18
2023-05-19T04:58:54.136Z,102092.91
2023-05-19T04:59:59.593Z,102089.81
2023-05-19T05:01:05.106Z,102094.2
2023-05-19T05:02:10.726Z,102098.53
2023-05-19T05:03:16.659Z,102093.28
2023-05-19T05:04:25.248Z,102098.64
2023-05-19T05:05:30.728Z,102095.48
2023-05-19T05:06:37.291Z,102103.2
2023-05-19T05:07:42.808Z,102099.31
2023-05-19T05:08:48.274Z,102105.75
2023-05-19T05:09:54.140Z,102099.42
2023-05-19T05:10:59.689Z,102099.92
2023-05-19T05:12:05.332Z,102096.88
2023-05-19T05:13:13.079Z,102098.32
2023-05-19T05:14:18.532Z,102088.06
2023-05-19T05:15:24.040Z,102091.7
2023-05-19T05:16:29.663Z,102093.78
2023-05-19T05:17:35.343Z,102086.9
2023-05-19T05:18:42.797Z,102087
2023-05-19T05:19:49.786Z,102088.06
2023-05-19T05:20:55.280Z,102089.09
2023-05-19T05:22:01.742Z,102087.55
2023-05-19T05:23:07.280Z,102087.45
2023-05-19T05:24:12.734Z,102089.03
2023-05-19T05:25:18.183Z,102090.38
2023-05-19T05:26:23.664Z,102086.27
2023-05-19T05:27:29.178Z,102092.97
2023-05-19T05:28:34.652Z,102091.7
2023-05-19T05:29:40.089Z,102092.81
2023-05-19T05:30:45.557Z,102085.5
2023-05-19T05:31:51.083Z,102086.53
2023-05-19T05:32:56.708Z,102094.2
2023-05-19T05:34:02.469Z,102095.59
2023-05-19T05:35:07.971Z,102092.6
2023-05-19T05:36:13.426Z,102086.36
2023-05-19T05:37:18.957Z,102089.14
2023-05-19T05:38:24.399Z,102085.75
2023-05-19T05:39:29.865Z,102094.25
2023-05-19T05:40:35.353Z,102087.61
2023-05-19T05:41:40.821Z,102091.34
2023-05-19T05:42:46.308Z,102087.24
2023-05-19T05:43:51.787Z,102092.36
2023-05-19T05:44:57.268Z,102092.91
2023-05-19T05:46:02.862Z,102094.06
2023-05-19T05:47:08.531Z,102093.03
2023-05-19T05:48:14.139Z,102094.15
2023-05-19T05:49:20.087Z,102093.83
2023-05-19T05:50:25.572Z,102095.17
2023-05-19T05:51:31.067Z,102100.03
2023-05-19T05:52:36.583Z,102095.64
2023-05-19T05:53:42.087Z,102093.05
2023-05-19T05:54:48.638Z,102096.56
2023-05-19T05:55:54.109Z,102100.53
2023-05-19T05:56:59.580Z,102097.12
2023-05-19T05:58:05.066Z,102095.28
2023-05-19T05:59:10.553Z,102091.39
2023-05-19T06:00:16.014Z,102093.23
2023-05-19T06:01:21.458Z,102095.41
2023-05-19T06:02:27.075Z,102093.61
2023-05-19T06:03:32.919Z,102091.77
2023-05-19T06:04:39.512Z,102094.8
2023-05-19T06:05:45.131Z,102085.02
2023-05-19T06:06:50.970Z,102091.11
2023-05-19T06:07:56.473Z,102091.27
2023-05-19T06:09:02.007Z,102086.83
2023-05-19T06:10:07.468Z,102091.27
2023-05-19T06:11:13.032Z,102097.17
2023-05-19T06:12:18.534Z,102085.91
2023-05-19T06:13:24.199Z,102092.97
2023-05-19T06:14:29.716Z,102088.25
2023-05-19T06:15:35.242Z,102088.89
2023-05-19T06:16:41.224Z,102087.14
2023-05-19T06:17:46.816Z,102095.77
2023-05-19T06:18:52.452Z,102095.13
2023-05-19T06:19:57.989Z,102092.13
2023-05-19T06:21:03.493Z,102096.52
2023-05-19T06:22:08.998Z,102097.84
2023-05-19T06:23:14.490Z,102092.44
2023-05-19T06:24:19.969Z,102098.77
2023-05-19T06:25:25.512Z,102099.23
2023-05-19T06:26:30.965Z,102095.22
2023-05-19T06:27:36.619Z,102099.23
2023-05-19T06:28:45.088Z,102092.55
2023-05-19T06:29:50.538Z,102092.78
2023-05-19T06:30:56.053Z,102099.02
2023-05-19T06:32:01.577Z,102092.31
2023-05-19T06:33:07.206Z,102100.17
2023-05-19T06:34:12.798Z,102094.25
2023-05-19T06:35:18.229Z,102098.32
2023-05-19T06:36:23.710Z,102101
2023-05-19T06:37:29.172Z,102097.84
2023-05-19T06:38:34.664Z,102093.7
2023-05-19T06:39:42.341Z,102099.55
2023-05-19T06:40:47.824Z,102101.55
2023-05-19T06:41:53.308Z,102098.51
2023-05-19T06:42:58.853Z,102092.73
2023-05-19T06:44:05.382Z,102100.34
2023-05-19T06:45:10.863Z,102100.95
2023-05-19T06:46:16.427Z,102099.3
2023-05-19T06:47:22.085Z,102103
2023-05-19T06:48:27.622Z,102100.83
2023-05-19T06:49:33.148Z,102099.91
2023-05-19T06:50:38.738Z,102106.6
2023-05-19T06:51:44.218Z,102107.94
2023-05-19T06:52:49.818Z,102108.97
2023-05-19T06:53:55.277Z,102109.1
2023-05-19T06:55:00.736Z,102104.66
2023-05-19T06:56:06.288Z,102106.98
2023-05-19T06:57:11.797Z,102105.55
2023-05-19T06:58:17.275Z,102100.05
2023-05-19T06:59:22.835Z,102103.61
2023-05-19T07:00:28.354Z,102097.37
2023-05-19T07:01:33.855Z,102101.38
2023-05-19T07:02:39.548Z,102108.68
2023-05-19T07:03:45.365Z,102103.56
2023-05-19T07:04:51.409Z,102106.84
2023-05-19T07:05:56.921Z,102108.55
2023-05-19T07:07:03.438Z,102105.51
2023-05-19T07:08:08.876Z,102115.3
2023-05-19T07:09:14.646Z,102111.89
2023-05-19T07:10:21.087Z,102111.83
2023-05-19T07:11:26.551Z,102113.41
2023-05-19T07:12:32.031Z,102107.5
2023-05-19T07:13:37.564Z,102106.24
2023-05-19T07:14:43.030Z,102111.65
2023-05-19T07:15:48.548Z,102111.47
2023-05-19T07:16:54.331Z,102106.22
2023-05-19T07:17:59.991Z,102111.33
2023-05-19T07:19:05.669Z,102110.55
2023-05-19T07:20:11.213Z,102112.49
2023-05-19T07:21:16.696Z,102113.17
2023-05-19T07:22:22.181Z,102111.05
2023-05-19T07:23:27.617Z,102106.95
2023-05-19T07:24:33.205Z,102105.75
2023-05-19T07:25:38.700Z,102112.55
2023-05-19T07:26:44.171Z,102115.06
2023-05-19T07:27:49.628Z,102115.12
2023-05-19T07:28:55.082Z,102110.97
2023-05-19T07:30:00.547Z,102117.23
2023-05-19T07:31:06.022Z,102110.97
2023-05-19T07:32:11.565Z,102108.79
2023-05-19T07:33:17.430Z,102105.25
2023-05-19T07:34:22.868Z,102101.23
2023-05-19T07:35:28.321Z,102100.7
2023-05-19T07:36:33.800Z,102100.03
2023-05-19T07:37:39.267Z,102097.09
2023-05-19T07:38:44.801Z,102101
2023-05-19T07:39:50.320Z,102104.52
2023-05-19T07:40:55.765Z,102104.46
2023-05-19T07:42:01.219Z,102104.23
2023-05-19T07:43:06.675Z,102098.98
2023-05-19T07:44:12.167Z,102105.8
2023-05-19T07:45:17.630Z,102103.12
2023-05-19T07:46:23.287Z,102109.92
2023-05-19T07:47:28.938Z,102104.02
2023-05-19T07:48:34.457Z,102107.56
2023-05-19T07:49:39.917Z,102100
2023-05-19T07:50:45.423Z,102100.21
2023-05-19T07:51:50.893Z,102105.48
2023-05-19T07:52:56.657Z,102096.85
2023-05-19T07:54:02.195Z,102099.48
2023-05-19T07:55:07.670Z,102102.2
2023-05-19T07:56:13.141Z,102096.67
2023-05-19T07:57:19.364Z,102093.52
2023-05-19T07:58:24.860Z,102100.27
2023-05-19T07:59:30.387Z,102097.22
2023-05-19T08:00:36.211Z,102091.08
2023-05-19T08:01:41.781Z,102097.03
2023-05-19T08:02:47.531Z,102095.64
2023-05-19T08:03:53.371Z,102092.1
2023-05-19T08:04:59.027Z,102094.17
2023-05-19T08:06:04.508Z,102089.53
2023-05-19T08:07:09.984Z,102095.94
2023-05-19T08:08:15.419Z,102096.2
2023-05-19T08:09:21.145Z,102096.25
2023-05-19T08:10:26.643Z,102096.67
2023-05-19T08:11:32.102Z,102099.71
2023-05-19T08:12:37.649Z,102095.83
2023-05-19T08:13:43.147Z,102096.95
2023-05-19T08:14:48.588Z,102101.84
2023-05-19T08:15:54.250Z,102097.87
2023-05-19T08:16:59.856Z,102102.76
2023-05-19T08:18:05.520Z,102099.63
2023-05-19T08:19:11.129Z,102094.83
2023-05-19T08:20:16.751Z,102102.02
2023-05-19T08:21:22.207Z,102099.82
2023-05-19T08:22:27.751Z,102102.81
2023-05-19T08:23:33.247Z,102099.34
2023-05-19T08:24:38.685Z,102106.41
2023-05-19T08:25:44.192Z,102102.81
2023-05-19T08:26:49.670Z,102098.8
2023-05-19T08:27:55.174Z,102100.97
2023-05-19T08:29:00.947Z,102102.58
2023-05-19T08:30:06.399Z,102098.3
2023-05-19T08:31:11.955Z,102096.91
2023-05-19T08:32:17.616Z,102092.84
2023-05-19T08:33:23.142Z,102097.95
2023-05-19T08:34:28.683Z,102098.01
2023-05-19T08:35:34.176Z,102099.4
2023-05-19T08:36:39.682Z,102094.13
2023-05-19T08:37:45.231Z,102096.67
2023-05-19T08:38:50.740Z,102099.95
2023-05-19T08:39:56.226Z,102097.59
2023-05-19T08:41:01.676Z,102097.22
2023-05-19T08:42:07.156Z,102093.26
2023-05-19T08:43:12.627Z,102092.34
2023-05-19T08:44:20.305Z,102095.02
2023-05-19T08:45:25.801Z,102089.56
2023-05-19T08:46:31.334Z,102092.92
2023-05-19T08:47:36.936Z,102089.79
2023-05-19T08:48:42.492Z,102089.88
2023-05-19T08:49:47.964Z,102088.77
2023-05-19T08:50:53.413Z,102091.86
2023-05-19T08:51:58.871Z,102095.04
2023-05-19T08:53:04.652Z,102092.73
2023-05-19T08:54:10.174Z,102090.89
2023-05-19T08:55:15.643Z,102090.11
2023-05-19T08:56:21.079Z,102093.15
2023-05-19T08:57:26.558Z,102093.83
2023-05-19T08:58:32.175Z,102095.22
2023-05-19T08:59:37.798Z,102079.71
2023-05-19T09:00:43.290Z,102087.66
2023-05-19T09:01:48.754Z,102080.45
2023-05-19T09:03:17.270Z,102088.48
2023-05-19T09:04:30.061Z,102084.33
2023-05-19T09:05:36.617Z,102081.7
2023-05-19T09:06:42.325Z,102085.98
2023-05-19T09:07:47.850Z,102083.59
2023-05-19T09:08:53.305Z,102082.2
2023-05-19T09:09:58.753Z,102081.65
2023-05-19T09:11:04.297Z,102080.26
2023-05-19T09:12:09.777Z,102080.31
2023-05-19T09:13:15.279Z,102080.73
2023-05-19T09:14:20.731Z,102080.26
2023-05-19T09:15:26.290Z,102078
2023-05-19T09:16:32.009Z,102079.34
2023-05-19T09:17:37.678Z,102078.5
2023-05-19T09:18:43.380Z,102075.09
2023-05-19T09:19:49.051Z,102080.31
2023-05-19T09:20:54.514Z,102075.98
2023-05-19T09:21:59.962Z,102082.15
2023-05-19T09:23:05.476Z,102077.31
2023-05-19T09:24:10.943Z,102082.02
2023-05-19T09:25:16.447Z,102080.37
2023-05-19T09:26:21.976Z,102075.38
2023-05-19T09:27:27.461Z,102078.42
2023-05-19T09:28:33.030Z,102078.48
2023-05-19T09:29:38.527Z,102081.89
2023-05-19T09:30:44.063Z,102081.61
2023-05-19T09:31:52.660Z,102080.55
2023-05-19T09:32:58.567Z,102079.34
2023-05-19T09:34:04.153Z,102079.77
2023-05-19T09:35:09.634Z,102076.67
2023-05-19T09:36:15.171Z,102082.86
2023-05-19T09:37:21.639Z,102081.33
2023-05-19T09:38:27.174Z,102074.17
2023-05-19T09:39:32.692Z,102077.87
2023-05-19T09:40:38.166Z,102077.16
2023-05-19T09:41:43.651Z,102078.19
2023-05-19T09:42:49.131Z,102078.73
2023-05-19T09:43:54.580Z,102073.8
2023-05-19T09:45:00.135Z,102075.61
2023-05-19T09:46:05.750Z,102075.56
2023-05-19T09:47:11.671Z,102076.53
2023-05-19T09:48:17.116Z,102075.7
2023-05-19T09:49:22.613Z,102081.89
2023-05-19T09:50:28.180Z,102078.8
2023-05-19T09:51:33.703Z,102078.3
2023-05-19T09:52:39.172Z,102079.71
2023-05-19T09:53:44.648Z,102079.3
2023-05-19T09:54:50.149Z,102079.34
2023-05-19T09:55:55.610Z,102081.66
2023-05-19T09:57:01.229Z,102073.58
2023-05-19T09:58:06.733Z,102077.64
2023-05-19T09:59:12.186Z,102076.67
2023-05-19T10:00:17.785Z,102081.89
2023-05-19T10:01:23.507Z,102083.36
2023-05-19T10:02:29.301Z,102074.55
2023-05-19T10:03:35.114Z,102077.69
2023-05-19T10:04:40.808Z,102074.55
2023-05-19T10:05:46.355Z,102076.3
2023-05-19T10:06:51.844Z,102077.14
2023-05-19T10:07:57.335Z,102079.08
2023-05-19T10:09:02.815Z,102072.7
2023-05-19T10:10:08.260Z,102083
2023-05-19T10:11:13.723Z,102078.72
2023-05-19T10:12:19.249Z,102076.17
2023-05-19T10:13:24.754Z,102077.98
2023-05-19T10:14:30.248Z,102076.59
2023-05-19T10:15:56.983Z,102073.08
2023-05-19T10:17:04.576Z,102070.87
2023-05-19T10:18:10.249Z,102067.73
2023-05-19T10:19:15.836Z,102075.08
2023-05-19T10:20:21.377Z,102071.9
2023-05-19T10:21:26.844Z,102074.78
2023-05-19T10:22:32.311Z,102078.3
2023-05-19T10:23:38.881Z,102076.17
2023-05-19T10:24:44.356Z,102071.74
2023-05-19T10:25:49.836Z,102076.28
2023-05-19T10:26:55.331Z,102076.73
2023-05-19T10:28:00.833Z,102077.02
2023-05-19T10:29:06.509Z,102080.92
2023-05-19T10:30:16.298Z,102078.34
2023-05-19T10:31:22.035Z,102076.23
2023-05-19T10:32:27.675Z,102076.05
2023-05-19T10:33:33.330Z,102078.3
2023-05-19T10:34:38.798Z,102080.01
2023-05-19T10:35:47.183Z,102071.74
2023-05-19T10:36:52.908Z,102076.59
2023-05-19T10:37:58.443Z,102077.2
2023-05-19T10:39:03.962Z,102080.05
2023-05-19T10:40:09.954Z,102077.37
2023-05-19T10:41:15.698Z,102081.39
2023-05-19T10:42:21.341Z,102087.56
2023-05-19T10:43:27.055Z,102082.27
2023-05-19T10:44:32.568Z,102080.5
2023-05-19T10:45:40.549Z,102080.56
2023-05-19T10:46:46.031Z,102074.1
2023-05-19T10:47:51.668Z,102081.27
2023-05-19T10:48:57.231Z,102081.27
2023-05-19T10:50:03.018Z,102081.16
2023-05-19T10:51:13.351Z,102085.13
2023-05-19T10:52:18.876Z,102080.38
2023-05-19T10:53:24.493Z,102083.47
2023-05-19T10:54:30.027Z,102077.98
2023-05-19T10:55:35.769Z,102079.92
2023-05-19T10:56:41.249Z,102079.45
2023-05-19T10:57:46.758Z,102079.09
2023-05-19T10:58:52.328Z,102075.02
2023-05-19T10:59:57.810Z,102073.23
2023-05-19T11:01:03.316Z,102081.53
2023-05-19T11:02:08.985Z,102077.2
2023-05-19T11:03:14.741Z,102070.87
2023-05-19T11:04:20.501Z,102071.24
2023-05-19T11:05:26.063Z,102075.26
2023-05-19T11:06:31.568Z,102069.12
2023-05-19T11:07:37.039Z,102064.78
2023-05-19T11:08:42.514Z,102065.16
2023-05-19T11:09:47.998Z,102069.59
2023-05-19T11:10:53.474Z,102073.87
2023-05-19T11:11:58.949Z,102070.82
2023-05-19T11:13:06.390Z,102070.27
2023-05-19T11:14:12.188Z,102069.43
2023-05-19T11:15:17.725Z,102070.69
2023-05-19T11:16:23.241Z,102074.89
2023-05-19T11:17:28.841Z,102072.11
2023-05-19T11:18:36.889Z,102069.85
2023-05-19T11:19:42.501Z,102071.61
2023-05-19T11:20:48.092Z,102069.43
2023-05-19T11:21:53.652Z,102063.89
2023-05-19T11:22:59.294Z,102061.58
2023-05-19T11:24:04.864Z,102062.97
2023-05-19T11:25:10.491Z,102066.25
2023-05-19T11:26:15.987Z,102064.81
2023-05-19T11:27:21.441Z,102062.05
2023-05-19T11:28:26.978Z,102059.27
2023-05-19T11:29:34.841Z,102061.95
2023-05-19T11:30:40.408Z,102054.84
2023-05-19T11:31:45.965Z,102051.7
2023-05-19T11:32:51.601Z,102057.15
2023-05-19T11:33:57.146Z,102055.44
2023-05-19T11:35:02.751Z,102055.67
2023-05-19T11:36:08.320Z,102058.3
2023-05-19T11:37:13.837Z,102053.31
2023-05-19T11:38:19.288Z,102058.77
2023-05-19T11:39:24.786Z,102055.12
2023-05-19T11:40:30.280Z,102060.28
2023-05-19T11:41:35.789Z,102059.13
2023-05-19T11:42:41.279Z,102066.2
2023-05-19T11:43:46.758Z,102062.23
2023-05-19T11:44:52.192Z,102065.27
2023-05-19T11:45:57.780Z,102054.7
2023-05-19T11:47:03.341Z,102054.09
2023-05-19T11:48:08.925Z,102053.5
2023-05-19T11:49:14.493Z,102053.36
2023-05-19T11:50:19.953Z,102059.92
2023-05-19T11:51:25.418Z,102056.17
2023-05-19T11:52:31.213Z,102047.28
2023-05-19T11:53:36.840Z,102048.25
2023-05-19T11:54:42.316Z,102051.24
2023-05-19T11:55:48.864Z,102049.85
2023-05-19T11:56:55.360Z,102051.47
2023-05-19T11:58:05.392Z,102062.59
2023-05-19T11:59:11.205Z,102052.95
2023-05-19T12:00:16.668Z,102050.5
2023-05-19T12:01:22.149Z,102062.23
2023-05-19T12:02:27.941Z,102057.37
2023-05-19T12:03:33.839Z,102065.77
2023-05-19T12:04:39.660Z,102060.05
2023-05-19T12:05:46.478Z,102057.43
2023-05-19T12:06:53.505Z,102063.57
2023-05-19T12:07:59.005Z,102062.36
2023-05-19T12:09:04.491Z,102066.15
2023-05-19T12:10:09.962Z,102060.71
2023-05-19T12:11:15.640Z,102066.15
2023-05-19T12:12:22.970Z,102068.59
2023-05-19T12:13:28.474Z,102064.2
2023-05-19T12:14:33.926Z,102062.92
2023-05-19T12:15:39.690Z,102063.95
2023-05-19T12:16:45.781Z,102056.78
2023-05-19T12:17:51.538Z,102059.93
2023-05-19T12:18:57.164Z,102059.93
2023-05-19T12:20:02.749Z,102055.12
2023-05-19T12:21:08.391Z,102059.51
2023-05-19T12:22:13.953Z,102061.88
2023-05-19T12:23:19.432Z,102062.38
2023-05-19T12:24:24.888Z,102059.44
2023-05-19T12:25:30.376Z,102064.55
2023-05-19T12:26:37.282Z,102056.2
2023-05-19T12:27:42.822Z,102051.77
2023-05-19T12:28:48.371Z,102054.64
2023-05-19T12:29:53.865Z,102055.37
2023-05-19T12:30:59.343Z,102060.91
2023-05-19T12:32:05.012Z,102062.3
2023-05-19T12:33:10.712Z,102062.48
2023-05-19T12:34:16.291Z,102064.73